Time;durP1;ratioP1;P1;durP2;ratioP2;P2;SDS_P1;SDS_P2;PMS_P1;PMS_P2;Temp;Humidity;BMP_temperature;BMP_pressure;BME280_temperature;BME280_humidity;BME280_pressure;Samples;Min_cycle;Max_cycle;Signal;HPM_P1;HPM_P2
2022/01/13 00:01:38;;;;;;;77.78;25.75;;;;;;;;;;5101492;28;20127;-61
2022/01/13 00:04:05;;;;;;;78.22;25.23;;;;;;;;;;5101819;28;20055;-61
2022/01/13 00:06:31;;;;;;;95.38;27.15;;;;;;;;;;5101186;28;20040;-62
2022/01/13 00:08:57;;;;;;;78.07;24.83;;;;;;;;;;5084780;28;20055;-62
2022/01/13 00:11:23;;;;;;;82.97;25.67;;;;;;;;;;5084774;28;20052;-62
2022/01/13 00:14:06;;;;;;;88.05;24.58;;;;;;;;;;5101572;28;20044;-62
2022/01/13 00:21:48;;;;;;;82.43;19.75;;;;;;;;;;5104647;28;20121;-62
2022/01/13 00:24:14;;;;;;;83.57;22.38;;;;;;;;;;5133406;27;20058;-62
2022/01/13 00:26:42;;;;;;;77.45;20.85;;;;;;;;;;5146877;27;20051;-61
2022/01/13 00:29:09;;;;;;;78.82;20.77;;;;;;;;;;5148608;27;20047;-62
2022/01/13 00:31:39;;;;;;;83.07;21.98;;;;;;;;;;5147115;27;20054;-61
2022/01/13 00:34:06;;;;;;;113.45;23.65;;;;;;;;;;5148695;27;20047;-62
2022/01/13 00:36:34;;;;;;;114.75;25.73;;;;;;;;;;5147597;27;20070;-62
2022/01/13 00:39:00;;;;;;;92.55;24.75;;;;;;;;;;5148651;27;20134;-63
2022/01/13 00:41:29;;;;;;;144.48;26.90;;;;;;;;;;5148259;27;20067;-62
2022/01/13 00:43:59;;;;;;;71.00;21.33;;;;;;;;;;5148593;27;20100;-62
2022/01/13 00:46:28;;;;;;;112.88;25.33;;;;;;;;;;5147884;27;20060;-62
2022/01/13 00:48:55;;;;;;;103.32;24.38;;;;;;;;;;5148045;27;20046;-62
2022/01/13 00:51:22;;;;;;;114.85;24.45;;;;;;;;;;5147705;27;20047;-62
2022/01/13 00:53:48;;;;;;;107.90;21.87;;;;;;;;;;5148181;27;20035;-61
2022/01/13 00:56:15;;;;;;;95.35;22.15;;;;;;;;;;5148051;27;20723;-62
2022/01/13 00:58:41;;;;;;;107.47;21.75;;;;;;;;;;5148189;27;20058;-61
2022/01/13 01:01:07;;;;;;;108.35;22.55;;;;;;;;;;5148040;27;20043;-61
2022/01/13 01:03:34;;;;;;;63.88;17.52;;;;;;;;;;5147669;27;20043;-62
2022/01/13 01:06:03;;;;;;;110.80;21.00;;;;;;;;;;5147477;27;20043;-62
2022/01/13 01:08:30;;;;;;;123.22;23.23;;;;;;;;;;5148318;27;20107;-62
2022/01/13 01:10:57;;;;;;;134.20;22.35;;;;;;;;;;5146319;27;20187;-62
2022/01/13 01:13:28;;;;;;;142.18;23.70;;;;;;;;;;5147597;27;20046;-61
2022/01/13 01:15:55;;;;;;;107.40;22.10;;;;;;;;;;5147560;27;20054;-62
2022/01/13 01:23:39;;;;;;;96.50;24.30;;;;;;;;;;5147662;27;20045;-62
2022/01/13 01:29:16;;;;;;;96.68;21.70;;;;;;;;;;5147272;27;20064;-62
2022/01/13 01:31:46;;;;;;;134.57;28.45;;;;;;;;;;5146217;27;20040;-62
2022/01/13 01:36:42;;;;;;;116.00;24.80;;;;;;;;;;5145383;27;20055;-62
2022/01/13 01:39:09;;;;;;;94.97;23.92;;;;;;;;;;5146748;27;20047;-62
2022/01/13 01:41:35;;;;;;;75.95;21.52;;;;;;;;;;5147027;27;20104;-62
2022/01/13 01:44:09;;;;;;;122.18;24.83;;;;;;;;;;5146555;27;20073;-62
2022/01/13 01:46:35;;;;;;;95.07;24.40;;;;;;;;;;5146880;27;20046;-62
2022/01/13 01:49:08;;;;;;;134.45;28.67;;;;;;;;;;5145298;27;20498;-62
2022/01/13 01:51:34;;;;;;;106.50;26.65;;;;;;;;;;5146201;27;20097;-62
2022/01/13 01:54:00;;;;;;;87.00;23.45;;;;;;;;;;5147182;27;20046;-62
2022/01/13 01:56:26;;;;;;;118.30;27.55;;;;;;;;;;5146485;27;20054;-62
2022/01/13 01:58:52;;;;;;;124.47;29.63;;;;;;;;;;5147389;27;20039;-62
2022/01/13 02:01:18;;;;;;;117.93;30.60;;;;;;;;;;5145262;27;20047;-62
2022/01/13 02:03:44;;;;;;;116.30;30.55;;;;;;;;;;5146763;27;20530;-62
2022/01/13 02:06:10;;;;;;;103.47;28.08;;;;;;;;;;5144364;27;20049;-62
2022/01/13 02:08:36;;;;;;;116.43;29.35;;;;;;;;;;5146809;27;20467;-62
2022/01/13 02:11:02;;;;;;;93.85;27.45;;;;;;;;;;5146592;27;20099;-62
2022/01/13 02:13:33;;;;;;;107.43;27.85;;;;;;;;;;5147134;27;20039;-62
2022/01/13 02:16:02;;;;;;;92.20;26.02;;;;;;;;;;5146054;27;20066;-62
2022/01/13 02:18:30;;;;;;;110.72;27.98;;;;;;;;;;5146088;27;20039;-62
2022/01/13 02:20:57;;;;;;;118.00;29.90;;;;;;;;;;5135799;27;20055;-63
2022/01/13 02:23:31;;;;;;;118.07;29.52;;;;;;;;;;5125494;28;20096;-62
2022/01/13 02:25:57;;;;;;;112.40;28.95;;;;;;;;;;5127309;27;20453;-62
2022/01/13 02:28:23;;;;;;;119.97;27.48;;;;;;;;;;5146720;27;20050;-62
2022/01/13 02:30:49;;;;;;;110.70;28.55;;;;;;;;;;5146285;27;20585;-62
2022/01/13 02:33:15;;;;;;;123.50;29.95;;;;;;;;;;5146192;27;20047;-62
2022/01/13 02:35:41;;;;;;;114.82;28.63;;;;;;;;;;5145697;27;20051;-62
2022/01/13 02:38:11;;;;;;;100.47;25.42;;;;;;;;;;5144783;27;20202;-62
2022/01/13 02:40:37;;;;;;;108.85;28.77;;;;;;;;;;5144445;27;20069;-62
2022/01/13 02:43:04;;;;;;;103.18;27.77;;;;;;;;;;5146227;27;20510;-62
2022/01/13 02:45:34;;;;;;;104.63;27.27;;;;;;;;;;5145998;27;20043;-62
2022/01/13 02:48:25;;;;;;;116.50;30.20;;;;;;;;;;5144230;27;20079;-62
2022/01/13 02:50:52;;;;;;;99.47;28.35;;;;;;;;;;5145344;27;20043;-62
2022/01/13 02:53:19;;;;;;;100.50;27.05;;;;;;;;;;5144795;27;20499;-62
2022/01/13 02:55:45;;;;;;;107.72;29.02;;;;;;;;;;5145472;27;20315;-62
2022/01/13 02:58:15;;;;;;;98.50;25.65;;;;;;;;;;5145868;27;20043;-62
2022/01/13 03:00:41;;;;;;;109.00;28.85;;;;;;;;;;5145775;27;20046;-62
2022/01/13 03:03:07;;;;;;;107.22;27.40;;;;;;;;;;5145740;27;20123;-62
2022/01/13 03:05:37;;;;;;;73.47;22.70;;;;;;;;;;5145255;27;20050;-62
2022/01/13 03:08:04;;;;;;;93.47;24.63;;;;;;;;;;5145785;27;20035;-62
2022/01/13 03:10:30;;;;;;;88.90;25.67;;;;;;;;;;5145646;27;20039;-62
2022/01/13 03:12:57;;;;;;;114.00;27.58;;;;;;;;;;5145920;27;20047;-62
2022/01/13 03:15:24;;;;;;;99.45;27.35;;;;;;;;;;5145599;27;20047;-63
2022/01/13 03:17:50;;;;;;;83.40;24.75;;;;;;;;;;5144941;27;20047;-62
2022/01/13 03:20:16;;;;;;;90.63;25.08;;;;;;;;;;5144790;28;20228;-62
2022/01/13 03:22:42;;;;;;;90.40;24.83;;;;;;;;;;5145736;27;20046;-62
2022/01/13 03:25:09;;;;;;;81.72;22.63;;;;;;;;;;5144480;28;20126;-62
2022/01/13 03:27:36;;;;;;;90.50;25.45;;;;;;;;;;5145965;27;20043;-62
2022/01/13 03:30:07;;;;;;;75.63;24.00;;;;;;;;;;5143598;28;20035;-62
2022/01/13 03:32:37;;;;;;;112.82;26.80;;;;;;;;;;5143985;28;20503;-62
2022/01/13 03:35:03;;;;;;;86.03;22.58;;;;;;;;;;5145232;28;20401;-62
2022/01/13 03:37:30;;;;;;;97.70;25.38;;;;;;;;;;5143798;28;20114;-62
2022/01/13 03:39:56;;;;;;;96.45;25.67;;;;;;;;;;5145063;28;20051;-62
2022/01/13 03:42:22;;;;;;;91.20;25.90;;;;;;;;;;5145395;27;20059;-62
2022/01/13 03:44:49;;;;;;;100.57;26.48;;;;;;;;;;5145545;28;20047;-62
2022/01/13 03:47:15;;;;;;;107.38;25.52;;;;;;;;;;5144900;28;20043;-62
2022/01/13 03:49:41;;;;;;;88.95;23.33;;;;;;;;;;5144421;28;20043;-62
2022/01/13 03:52:13;;;;;;;117.10;25.08;;;;;;;;;;5144375;27;20053;-62
2022/01/13 03:54:40;;;;;;;104.70;26.13;;;;;;;;;;5148994;27;20533;-62
2022/01/13 03:57:06;;;;;;;101.80;24.83;;;;;;;;;;5149463;27;20047;-63
2022/01/13 03:59:53;;;;;;;106.40;26.55;;;;;;;;;;5147958;27;20058;-62
2022/01/13 04:02:19;;;;;;;97.15;25.00;;;;;;;;;;5148831;27;20043;-62
2022/01/13 04:04:47;;;;;;;115.95;26.25;;;;;;;;;;5149383;27;20039;-62
2022/01/13 04:07:16;;;;;;;93.90;25.83;;;;;;;;;;5148747;27;20130;-62
2022/01/13 04:09:42;;;;;;;104.40;25.55;;;;;;;;;;5149039;27;20047;-62
2022/01/13 04:12:11;;;;;;;112.07;26.48;;;;;;;;;;5149070;27;20043;-62
2022/01/13 04:14:47;;;;;;;101.22;24.85;;;;;;;;;;5147968;27;20054;-62
2022/01/13 04:17:14;;;;;;;112.93;24.83;;;;;;;;;;5148721;27;20050;-62
2022/01/13 04:19:41;;;;;;;110.13;24.45;;;;;;;;;;5148804;27;20065;-62
2022/01/13 04:22:08;;;;;;;96.55;23.35;;;;;;;;;;5148327;27;20043;-62
2022/01/13 04:24:34;;;;;;;94.57;23.73;;;;;;;;;;5148687;27;20051;-63
2022/01/13 04:27:00;;;;;;;105.13;24.90;;;;;;;;;;5149102;27;20050;-61
2022/01/13 04:29:32;;;;;;;106.65;24.50;;;;;;;;;;5148115;27;20094;-63
2022/01/13 04:31:59;;;;;;;105.18;22.73;;;;;;;;;;5146989;27;20047;-63
2022/01/13 04:34:26;;;;;;;116.60;26.08;;;;;;;;;;5148729;27;20053;-62
2022/01/13 04:36:54;;;;;;;110.55;25.70;;;;;;;;;;5147896;27;20072;-64
2022/01/13 04:39:21;;;;;;;113.57;27.23;;;;;;;;;;5145673;27;20055;-62
2022/01/13 04:41:48;;;;;;;149.98;28.20;;;;;;;;;;5148678;27;20071;-61
2022/01/13 04:44:16;;;;;;;139.02;28.13;;;;;;;;;;5148509;27;20122;-61
2022/01/13 04:46:43;;;;;;;128.05;25.50;;;;;;;;;;5147987;27;20043;-62
2022/01/13 04:49:09;;;;;;;89.63;23.63;;;;;;;;;;5147976;27;20043;-61
2022/01/13 04:51:36;;;;;;;98.95;22.70;;;;;;;;;;5147692;27;20058;-61
2022/01/13 04:54:02;;;;;;;157.07;27.83;;;;;;;;;;5147005;27;20046;-61
2022/01/13 04:56:32;;;;;;;170.75;28.67;;;;;;;;;;5148323;27;20067;-61
2022/01/13 04:58:58;;;;;;;158.00;29.90;;;;;;;;;;5147802;27;20047;-63
2022/01/13 05:01:24;;;;;;;120.03;27.75;;;;;;;;;;5147573;27;20043;-62
2022/01/13 05:03:51;;;;;;;75.88;21.75;;;;;;;;;;5147804;27;20520;-61
2022/01/13 05:06:20;;;;;;;141.68;29.45;;;;;;;;;;5147535;27;20130;-61
2022/01/13 05:08:47;;;;;;;136.70;30.02;;;;;;;;;;5148007;27;20039;-61
2022/01/13 05:11:13;;;;;;;146.15;31.23;;;;;;;;;;5147725;27;20099;-61
2022/01/13 05:13:39;;;;;;;152.52;30.00;;;;;;;;;;5147811;27;20035;-62
2022/01/13 05:16:07;;;;;;;120.13;25.15;;;;;;;;;;5147749;27;20050;-61
2022/01/13 05:21:05;;;;;;;118.93;23.83;;;;;;;;;;5146320;27;20122;-62
2022/01/13 05:23:32;;;;;;;147.13;28.48;;;;;;;;;;5146470;27;20076;-61
2022/01/13 05:25:58;;;;;;;135.70;28.02;;;;;;;;;;5147781;27;20459;-61
2022/01/13 05:28:24;;;;;;;151.52;28.48;;;;;;;;;;5147578;27;20043;-61
2022/01/13 05:30:51;;;;;;;121.28;26.48;;;;;;;;;;5147225;27;20103;-61
2022/01/13 05:33:17;;;;;;;146.50;28.95;;;;;;;;;;5147223;27;20035;-61
2022/01/13 05:35:43;;;;;;;171.82;34.08;;;;;;;;;;5145793;27;20050;-61
2022/01/13 05:38:09;;;;;;;153.68;29.63;;;;;;;;;;5147563;27;20043;-61
2022/01/13 05:40:36;;;;;;;156.10;31.90;;;;;;;;;;5147157;27;20147;-61
2022/01/13 05:43:03;;;;;;;102.22;25.25;;;;;;;;;;5146322;27;20046;-63
2022/01/13 05:45:30;;;;;;;140.00;29.63;;;;;;;;;;5147062;27;20062;-62
2022/01/13 05:48:00;;;;;;;188.73;31.33;;;;;;;;;;5147044;27;20102;-61
2022/01/13 05:50:26;;;;;;;183.45;31.95;;;;;;;;;;5146478;27;20054;-61
2022/01/13 05:52:53;;;;;;;232.88;34.70;;;;;;;;;;5146656;27;20092;-62
2022/01/13 05:55:19;;;;;;;158.50;31.60;;;;;;;;;;5147217;27;20095;-61
2022/01/13 05:57:45;;;;;;;140.18;29.98;;;;;;;;;;5146904;27;20035;-61
2022/01/13 06:00:13;;;;;;;177.02;33.50;;;;;;;;;;5147061;27;20039;-61
2022/01/13 06:02:40;;;;;;;171.05;32.25;;;;;;;;;;5146463;27;20051;-62
2022/01/13 06:05:07;;;;;;;137.75;31.23;;;;;;;;;;5146075;27;20394;-61
2022/01/13 06:07:33;;;;;;;175.32;33.90;;;;;;;;;;5147068;27;20039;-61
2022/01/13 06:10:00;;;;;;;229.82;34.83;;;;;;;;;;5146846;27;20058;-61
2022/01/13 06:12:33;;;;;;;163.48;31.25;;;;;;;;;;5146129;27;20095;-61
2022/01/13 06:15:00;;;;;;;135.85;28.52;;;;;;;;;;5146486;27;20356;-61
2022/01/13 06:17:26;;;;;;;148.43;28.63;;;;;;;;;;5145590;27;20107;-61
2022/01/13 06:19:54;;;;;;;161.23;32.63;;;;;;;;;;5146713;27;20054;-61
2022/01/13 06:22:20;;;;;;;;;;;;;;;;;;5146409;27;20049;-61
2022/01/13 06:24:46;;;;;;;169.98;33.40;;;;;;;;;;5146199;27;20437;-61
2022/01/13 06:27:12;;;;;;;159.88;34.15;;;;;;;;;;5146110;27;20043;-61
2022/01/13 06:29:38;;;;;;;134.48;29.00;;;;;;;;;;5146097;27;20035;-61
2022/01/13 06:32:04;;;;;;;116.38;29.05;;;;;;;;;;5145615;27;20111;-61
2022/01/13 06:34:30;;;;;;;148.77;32.92;;;;;;;;;;5146548;27;20039;-61
2022/01/13 06:36:56;;;;;;;126.78;30.23;;;;;;;;;;5145878;27;20494;-61
2022/01/13 06:39:23;;;;;;;167.23;33.30;;;;;;;;;;5145818;27;20094;-61
2022/01/13 06:41:49;;;;;;;138.73;31.35;;;;;;;;;;5147113;27;20057;-61
2022/01/13 06:44:15;;;;;;;140.40;31.60;;;;;;;;;;5152715;27;20051;-62
2022/01/13 06:46:41;;;;;;;148.40;31.92;;;;;;;;;;5151273;27;20039;-62
2022/01/13 06:49:07;;;;;;;151.65;33.05;;;;;;;;;;5148119;27;20045;-62
2022/01/13 06:51:33;;;;;;;120.97;27.52;;;;;;;;;;5144978;27;20043;-61
2022/01/13 06:53:59;;;;;;;145.27;31.98;;;;;;;;;;5145833;27;20099;-62
2022/01/13 06:56:26;;;;;;;145.35;30.58;;;;;;;;;;5148329;27;20039;-63
2022/01/13 06:58:54;;;;;;;150.10;31.63;;;;;;;;;;5160866;27;20077;-63
2022/01/13 07:01:22;;;;;;;149.93;33.58;;;;;;;;;;5145285;27;20085;-63
2022/01/13 07:03:48;;;;;;;143.18;32.13;;;;;;;;;;5146693;27;20051;-62
2022/01/13 07:06:14;;;;;;;144.40;33.78;;;;;;;;;;5144516;27;20100;-63
2022/01/13 07:08:40;;;;;;;141.55;32.65;;;;;;;;;;5143582;27;20042;-61
2022/01/13 07:11:06;;;;;;;152.10;36.17;;;;;;;;;;5145141;27;20107;-62
2022/01/13 07:13:33;;;;;;;121.32;32.05;;;;;;;;;;5147885;27;20122;-63
2022/01/13 07:16:01;;;;;;;149.20;35.67;;;;;;;;;;5148472;27;20043;-63
2022/01/13 07:18:27;;;;;;;;;;;;;;;;;;5144565;27;20067;-61
2022/01/13 07:20:53;;;;;;;148.50;34.40;;;;;;;;;;5143844;27;19940;-62
2022/01/13 07:23:19;;;;;;;139.40;33.88;;;;;;;;;;5144633;27;20098;-61
2022/01/13 07:25:45;;;;;;;81.90;26.02;;;;;;;;;;5144123;28;20078;-62
2022/01/13 07:28:11;;;;;;;131.05;33.50;;;;;;;;;;5145980;27;20106;-61
2022/01/13 07:30:37;;;;;;;141.55;34.17;;;;;;;;;;5148539;27;20043;-61
2022/01/13 07:33:03;;;;;;;115.22;31.75;;;;;;;;;;5149119;27;20035;-61
2022/01/13 07:35:29;;;;;;;125.25;34.92;;;;;;;;;;5148456;27;20126;-61
2022/01/13 07:37:55;;;;;;;90.03;29.23;;;;;;;;;;5146453;27;20047;-62
2022/01/13 07:40:22;;;;;;;132.38;35.28;;;;;;;;;;5147909;27;20063;-61
2022/01/13 07:42:49;;;;;;;128.95;32.55;;;;;;;;;;5148160;27;20044;-61
2022/01/13 07:45:16;;;;;;;133.23;33.37;;;;;;;;;;5128757;28;20181;-63
2022/01/13 07:47:43;;;;;;;106.30;31.43;;;;;;;;;;5128517;28;20103;-62
2022/01/13 07:50:10;;;;;;;85.47;26.95;;;;;;;;;;5142645;27;20284;-61
2022/01/13 07:52:36;;;;;;;101.85;29.98;;;;;;;;;;5149466;27;20446;-61
2022/01/13 07:55:03;;;;;;;132.98;35.40;;;;;;;;;;5149293;27;20035;-61
2022/01/13 07:57:29;;;;;;;128.48;35.85;;;;;;;;;;5148192;27;20043;-63
2022/01/13 07:59:56;;;;;;;145.02;34.13;;;;;;;;;;5148760;27;20142;-61
2022/01/13 08:02:23;;;;;;;132.43;33.05;;;;;;;;;;5148617;27;20099;-63
2022/01/13 08:04:49;;;;;;;115.38;30.02;;;;;;;;;;5143010;27;20039;-61
2022/01/13 08:07:16;;;;;;;140.75;34.35;;;;;;;;;;5146635;27;20039;-61
2022/01/13 08:09:42;;;;;;;134.02;32.17;;;;;;;;;;5148926;27;20051;-61
2022/01/13 08:12:08;;;;;;;133.65;32.58;;;;;;;;;;5148762;27;20054;-63
2022/01/13 08:14:34;;;;;;;129.93;32.03;;;;;;;;;;5152180;27;20107;-64
2022/01/13 08:17:02;;;;;;;132.45;32.00;;;;;;;;;;5148601;27;20051;-63
2022/01/13 08:19:48;;;;;;;99.60;29.65;;;;;;;;;;5161772;27;20046;-61
2022/01/13 08:22:17;;;;;;;115.55;33.15;;;;;;;;;;5138432;27;20050;-63
2022/01/13 08:24:44;;;;;;;103.65;31.38;;;;;;;;;;5144776;27;20066;-61
2022/01/13 08:27:10;;;;;;;112.30;31.33;;;;;;;;;;5146068;27;20036;-61
2022/01/13 08:29:36;;;;;;;121.43;32.20;;;;;;;;;;5147509;27;20090;-61
2022/01/13 08:32:02;;;;;;;108.30;30.00;;;;;;;;;;5145408;27;20039;-61
2022/01/13 08:34:29;;;;;;;108.65;30.95;;;;;;;;;;5146254;27;20065;-61
2022/01/13 08:36:55;;;;;;;92.78;28.60;;;;;;;;;;5145306;27;20494;-61
2022/01/13 08:39:21;;;;;;;96.32;30.88;;;;;;;;;;5145283;27;20136;-63
2022/01/13 08:41:47;;;;;;;104.32;31.50;;;;;;;;;;5147285;27;20046;-62
2022/01/13 08:44:13;;;;;;;97.47;30.48;;;;;;;;;;5143585;27;20043;-63
2022/01/13 08:46:40;;;;;;;77.72;25.90;;;;;;;;;;5145727;27;20115;-62
2022/01/13 08:49:06;;;;;;;69.65;25.63;;;;;;;;;;5146695;27;20069;-63
2022/01/13 08:51:32;;;;;;;84.88;27.90;;;;;;;;;;5145607;27;20039;-62
2022/01/13 08:53:58;;;;;;;77.38;25.40;;;;;;;;;;5147566;27;20058;-61
2022/01/13 08:56:25;;;;;;;99.47;31.88;;;;;;;;;;5147148;27;20075;-63
2022/01/13 08:58:51;;;;;;;69.97;26.63;;;;;;;;;;5144076;27;20104;-63
2022/01/13 09:01:17;;;;;;;78.63;28.13;;;;;;;;;;5145870;27;20125;-63
2022/01/13 09:03:43;;;;;;;89.13;31.67;;;;;;;;;;5144444;27;20092;-62
2022/01/13 09:06:09;;;;;;;74.75;27.33;;;;;;;;;;5134228;27;20699;-61
2022/01/13 09:08:35;;;;;;;93.90;29.38;;;;;;;;;;5144823;27;20059;-61
2022/01/13 09:11:02;;;;;;;100.63;29.17;;;;;;;;;;5135906;27;20073;-62
2022/01/13 09:13:33;;;;;;;79.88;29.08;;;;;;;;;;5147373;27;20105;-61
2022/01/13 09:16:00;;;;;;;91.45;29.98;;;;;;;;;;5146831;27;20076;-61
2022/01/13 09:18:58;;;;;;;85.45;28.60;;;;;;;;;;5153249;27;20126;-61
2022/01/13 09:21:17;;;;;;;89.07;29.85;;;;;;;;;;5163794;27;20077;-61
2022/01/13 09:23:43;;;;;;;85.80;28.15;;;;;;;;;;5146273;27;20071;-61
2022/01/13 09:26:09;;;;;;;70.82;26.40;;;;;;;;;;5147764;27;20050;-61
2022/01/13 09:28:36;;;;;;;73.60;26.60;;;;;;;;;;5146992;27;20043;-61
2022/01/13 09:31:02;;;;;;;92.28;32.70;;;;;;;;;;5147920;27;20102;-63
2022/01/13 09:33:28;;;;;;;86.47;28.45;;;;;;;;;;5150284;27;20127;-63
2022/01/13 09:35:54;;;;;;;60.15;26.83;;;;;;;;;;5146990;27;20043;-61
2022/01/13 09:38:20;;;;;;;80.75;31.70;;;;;;;;;;5148621;27;20098;-61
2022/01/13 09:40:47;;;;;;;98.30;34.70;;;;;;;;;;5146358;27;20111;-63
2022/01/13 09:43:13;;;;;;;83.75;30.13;;;;;;;;;;5146611;27;20054;-61
2022/01/13 09:45:40;;;;;;;100.10;32.90;;;;;;;;;;5151298;27;20046;-61
2022/01/13 09:48:06;;;;;;;100.43;30.95;;;;;;;;;;5144812;27;20043;-61
2022/01/13 09:50:33;;;;;;;104.20;29.33;;;;;;;;;;5144970;27;20047;-61
2022/01/13 09:52:59;;;;;;;114.45;32.10;;;;;;;;;;5126673;27;20103;-62
2022/01/13 09:55:25;;;;;;;111.60;32.95;;;;;;;;;;5145468;27;20039;-61
2022/01/13 09:57:52;;;;;;;115.03;33.72;;;;;;;;;;5146154;27;20237;-61
2022/01/13 10:00:20;;;;;;;106.72;32.33;;;;;;;;;;5146224;27;20043;-61
2022/01/13 10:02:46;;;;;;;103.18;30.70;;;;;;;;;;5146191;27;20043;-62
2022/01/13 10:05:12;;;;;;;93.53;31.13;;;;;;;;;;5143846;27;20043;-62
2022/01/13 10:07:41;;;;;;;99.10;33.15;;;;;;;;;;5140926;27;20055;-61
2022/01/13 10:10:09;;;;;;;89.68;31.10;;;;;;;;;;5143762;27;20128;-64
2022/01/13 10:12:40;;;;;;;84.97;30.35;;;;;;;;;;5146036;27;20080;-63
2022/01/13 10:17:47;;;;;;;84.43;31.00;;;;;;;;;;5144878;27;20427;-62
2022/01/13 10:20:14;;;;;;;74.65;30.33;;;;;;;;;;5144007;27;21033;-62
2022/01/13 10:22:40;;;;;;;80.22;31.42;;;;;;;;;;5144812;27;20035;-62
2022/01/13 10:25:08;;;;;;;85.43;29.38;;;;;;;;;;5144300;27;20039;-61
2022/01/13 10:27:34;;;;;;;;;;;;;;;;;;5146425;27;20126;-62
2022/01/13 10:30:01;;;;;;;74.35;30.90;;;;;;;;;;5134677;27;19923;-61
2022/01/13 10:32:33;;;;;;;69.05;28.17;;;;;;;;;;5144098;27;20043;-63
2022/01/13 10:34:59;;;;;;;76.35;29.17;;;;;;;;;;5142901;27;20046;-62
2022/01/13 10:37:33;;;;;;;59.58;26.63;;;;;;;;;;5138961;27;20043;-61
2022/01/13 10:40:03;;;;;;;63.60;27.70;;;;;;;;;;5143073;27;20103;-61
2022/01/13 10:45:06;;;;;;;78.00;31.60;;;;;;;;;;5145559;27;20111;-61
2022/01/13 10:47:33;;;;;;;71.07;30.58;;;;;;;;;;5140501;27;20040;-61
2022/01/13 10:50:03;;;;;;;63.05;29.50;;;;;;;;;;5143759;27;20046;-62
2022/01/13 10:52:30;;;;;;;75.93;31.00;;;;;;;;;;5139406;27;20035;-62
2022/01/13 10:55:09;;;;;;;84.13;32.15;;;;;;;;;;5132733;27;20111;-62
2022/01/13 10:57:36;;;;;;;83.38;32.13;;;;;;;;;;5142975;27;20050;-62
2022/01/13 11:00:18;;;;;;;72.95;28.85;;;;;;;;;;5141228;27;20051;-62
2022/01/13 11:02:45;;;;;;;89.80;33.88;;;;;;;;;;5134885;27;20039;-60
2022/01/13 11:05:11;;;;;;;76.38;30.05;;;;;;;;;;5139701;27;20458;-62
2022/01/13 11:07:40;;;;;;;90.97;33.80;;;;;;;;;;5138724;27;20043;-62
2022/01/13 11:10:06;;;;;;;83.38;32.75;;;;;;;;;;5135386;27;20039;-62
2022/01/13 11:12:43;;;;;;;86.00;33.03;;;;;;;;;;5140083;27;20051;-62
2022/01/13 11:15:13;;;;;;;84.60;34.75;;;;;;;;;;5141160;27;20042;-62
2022/01/13 11:17:41;;;;;;;78.43;32.47;;;;;;;;;;5143250;27;20064;-62
2022/01/13 11:20:18;;;;;;;83.13;34.72;;;;;;;;;;5142550;27;20039;-62
2022/01/13 11:22:45;;;;;;;75.80;34.13;;;;;;;;;;5144684;27;20039;-62
2022/01/13 11:25:12;;;;;;;70.40;30.23;;;;;;;;;;5142207;27;20043;-62
2022/01/13 11:27:39;;;;;;;66.05;27.77;;;;;;;;;;5143529;28;20039;-62
2022/01/13 11:30:07;;;;;;;66.13;29.17;;;;;;;;;;5138035;28;20064;-62
2022/01/13 11:32:33;;;;;;;78.88;35.22;;;;;;;;;;5149531;27;20046;-62
2022/01/13 11:34:59;;;;;;;70.05;30.02;;;;;;;;;;5143242;28;20134;-62
2022/01/13 11:37:32;;;;;;;55.67;27.85;;;;;;;;;;5140503;27;20047;-62
2022/01/13 11:39:58;;;;;;;61.45;33.45;;;;;;;;;;5144670;28;20134;-62
2022/01/13 11:42:25;;;;;;;73.20;30.30;;;;;;;;;;5144643;28;20050;-62
2022/01/13 11:45:23;;;;;;;64.60;29.02;;;;;;;;;;5145696;27;20114;-62
2022/01/13 11:47:52;;;;;;;60.70;27.98;;;;;;;;;;5086484;28;20105;-62
2022/01/13 11:50:23;;;;;;;75.05;31.70;;;;;;;;;;5097653;28;20070;-62
2022/01/13 11:52:52;;;;;;;69.20;29.90;;;;;;;;;;5077941;28;20397;-61
2022/01/13 11:55:35;;;;;;;81.65;33.83;;;;;;;;;;5070538;28;20047;-63
2022/01/13 11:58:14;;;;;;;83.05;32.25;;;;;;;;;;5080891;28;20053;-62
2022/01/13 12:00:41;;;;;;;73.22;29.65;;;;;;;;;;5078074;28;20036;-62
2022/01/13 12:03:27;;;;;;;60.37;28.10;;;;;;;;;;5078684;28;20051;-60
2022/01/13 12:05:53;;;;;;;58.75;27.95;;;;;;;;;;5062222;28;20064;-61
2022/01/13 12:08:38;;;;;;;64.43;30.67;;;;;;;;;;5068305;28;20052;-61
2022/01/13 12:11:04;;;;;;;55.90;28.08;;;;;;;;;;5077330;28;20161;-61
2022/01/13 12:13:35;;;;;;;63.22;28.42;;;;;;;;;;5076507;28;20037;-60
2022/01/13 12:16:02;;;;;;;57.33;29.00;;;;;;;;;;5083306;28;20474;-61
2022/01/13 12:18:44;;;;;;;55.92;29.05;;;;;;;;;;5084714;28;20048;-61
2022/01/13 12:21:27;;;;;;;47.35;25.23;;;;;;;;;;5084679;28;20075;-61
2022/01/13 12:23:53;;;;;;;55.88;27.67;;;;;;;;;;5115499;27;20059;-61
2022/01/13 12:26:31;;;;;;;58.97;28.58;;;;;;;;;;5132660;27;20051;-61
2022/01/13 12:29:14;;;;;;;58.28;28.90;;;;;;;;;;5137244;27;20047;-61
2022/01/13 12:31:59;;;;;;;41.28;23.10;;;;;;;;;;5132473;27;20051;-61
2022/01/13 12:34:25;;;;;;;51.92;27.80;;;;;;;;;;5138021;27;20040;-61
2022/01/13 12:36:51;;;;;;;40.80;20.52;;;;;;;;;;5133229;27;20078;-61
2022/01/13 12:39:18;;;;;;;50.70;25.05;;;;;;;;;;5129561;27;20052;-61
2022/01/13 12:42:00;;;;;;;48.58;26.08;;;;;;;;;;5137655;27;20039;-61
2022/01/13 12:47:11;;;;;;;46.53;25.25;;;;;;;;;;5149761;27;20047;-61
2022/01/13 12:49:38;;;;;;;47.30;24.75;;;;;;;;;;5135364;27;20078;-61
2022/01/13 12:52:05;;;;;;;53.13;27.73;;;;;;;;;;5142076;27;20114;-61
2022/01/13 12:54:31;;;;;;;40.05;21.08;;;;;;;;;;5141279;27;20057;-60
2022/01/13 12:57:02;;;;;;;46.13;24.90;;;;;;;;;;5145530;27;20043;-60
2022/01/13 12:59:28;;;;;;;43.65;23.42;;;;;;;;;;5145778;27;20047;-61
2022/01/13 13:01:57;;;;;;;55.67;24.25;;;;;;;;;;5147897;27;20034;-61
2022/01/13 13:04:23;;;;;;;44.83;24.17;;;;;;;;;;5144285;27;20139;-61
2022/01/13 13:06:51;;;;;;;40.03;22.80;;;;;;;;;;5145093;27;20054;-62
2022/01/13 13:09:19;;;;;;;37.38;20.13;;;;;;;;;;5146248;27;20047;-61
2022/01/13 13:11:46;;;;;;;51.03;23.77;;;;;;;;;;5144212;27;20391;-61
2022/01/13 13:14:18;;;;;;;31.27;18.42;;;;;;;;;;5146493;27;20045;-61
2022/01/13 13:16:45;;;;;;;41.67;21.55;;;;;;;;;;5145194;27;20465;-61
2022/01/13 13:19:12;;;;;;;43.00;21.50;;;;;;;;;;5141063;27;20069;-61
2022/01/13 13:21:38;;;;;;;35.42;20.67;;;;;;;;;;5145156;27;20046;-61
2022/01/13 13:24:04;;;;;;;40.08;18.05;;;;;;;;;;5146487;27;20081;-61
2022/01/13 13:26:31;;;;;;;39.15;20.02;;;;;;;;;;5144519;27;20043;-61
2022/01/13 13:28:57;;;;;;;45.33;20.15;;;;;;;;;;5140831;27;20118;-61
2022/01/13 13:31:28;;;;;;;47.33;22.92;;;;;;;;;;5146253;27;20039;-61
2022/01/13 13:33:54;;;;;;;33.08;18.80;;;;;;;;;;5146183;27;20452;-61
2022/01/13 13:36:22;;;;;;;29.08;15.48;;;;;;;;;;5140894;27;20051;-61
2022/01/13 13:38:49;;;;;;;33.08;15.68;;;;;;;;;;5145387;27;20520;-61
2022/01/13 13:41:20;;;;;;;40.15;19.58;;;;;;;;;;5143869;27;20050;-61
2022/01/13 13:43:46;;;;;;;27.27;15.95;;;;;;;;;;5139935;27;20081;-61
2022/01/13 13:46:14;;;;;;;37.13;17.92;;;;;;;;;;5138726;27;20050;-61
2022/01/13 13:48:43;;;;;;;28.58;17.65;;;;;;;;;;5145220;27;20031;-61
2022/01/13 13:51:12;;;;;;;31.23;16.38;;;;;;;;;;5145252;27;20035;-61
2022/01/13 13:53:39;;;;;;;34.65;16.13;;;;;;;;;;5144355;27;20436;-61
2022/01/13 13:56:05;;;;;;;27.52;14.32;;;;;;;;;;5148073;27;20102;-61
2022/01/13 13:58:31;;;;;;;29.67;13.95;;;;;;;;;;5145832;27;20104;-61
2022/01/13 14:01:05;;;;;;;33.90;13.85;;;;;;;;;;5142859;27;20431;-61
2022/01/13 14:03:44;;;;;;;36.03;14.32;;;;;;;;;;5143181;27;20055;-61
2022/01/13 14:06:11;;;;;;;28.85;15.18;;;;;;;;;;5145039;27;20050;-62
2022/01/13 14:08:51;;;;;;;34.97;16.70;;;;;;;;;;5144851;27;20031;-61
2022/01/13 14:11:17;;;;;;;27.00;13.40;;;;;;;;;;5142865;27;20043;-61
2022/01/13 14:13:43;;;;;;;27.33;12.98;;;;;;;;;;5145241;27;20043;-60
2022/01/13 14:16:09;;;;;;;29.98;14.77;;;;;;;;;;5144110;27;20047;-61
2022/01/13 14:18:38;;;;;;;28.90;15.10;;;;;;;;;;5143710;27;20050;-61
2022/01/13 14:21:05;;;;;;;31.70;13.93;;;;;;;;;;5143933;27;20077;-61
2022/01/13 14:23:32;;;;;;;37.67;14.70;;;;;;;;;;5145050;27;20050;-60
2022/01/13 14:26:16;;;;;;;36.40;14.47;;;;;;;;;;5141170;27;20044;-61
2022/01/13 14:28:46;;;;;;;31.83;13.32;;;;;;;;;;5141762;27;20059;-63
2022/01/13 14:31:13;;;;;;;28.05;12.48;;;;;;;;;;5144934;27;20047;-61
2022/01/13 14:33:40;;;;;;;22.52;12.20;;;;;;;;;;5143895;27;20046;-61
2022/01/13 14:36:08;;;;;;;30.27;13.30;;;;;;;;;;5141155;27;20051;-61
2022/01/13 14:38:34;;;;;;;35.65;14.30;;;;;;;;;;5143822;27;20050;-61
2022/01/13 14:41:00;;;;;;;35.88;13.63;;;;;;;;;;5144689;27;20434;-61
2022/01/13 14:43:26;;;;;;;34.65;14.43;;;;;;;;;;5144814;27;20050;-61